Time;durP1;ratioP1;P1;durP2;ratioP2;P2;SDS_P1;SDS_P2;PMS_P1;PMS_P2;Temp;Humidity;BMP_temperature;BMP_pressure;BME280_temperature;BME280_humidity;BME280_pressure;Samples;Min_cycle;Max_cycle;Signal;HPM_P1;HPM_P2
2023/05/07 00:00:20;;;;;;;16.40;11.57;;;;;;;13.20;61.75;95413.56;5051815;28;20492;-81
2023/05/07 00:02:46;;;;;;;17.88;11.20;;;;;;;13.47;61.62;95469.72;5033913;28;20120;-81
2023/05/07 00:05:11;;;;;;;23.45;12.13;;;;;;;13.30;62.29;95470.16;5051537;28;20052;-81
2023/05/07 00:07:37;;;;;;;22.67;11.77;;;;;;;13.06;62.53;95442.69;5050893;28;20033;-80
2023/05/07 00:10:04;;;;;;;23.20;11.80;;;;;;;12.97;63.81;95482.44;5050869;28;20706;-80
2023/05/07 00:12:33;;;;;;;29.05;11.88;;;;;;;13.23;63.13;95485.69;5035969;28;20068;-81
2023/05/07 00:14:59;;;;;;;23.85;11.93;;;;;;;13.19;63.23;95467.88;5051096;28;20035;-81
2023/05/07 00:17:25;;;;;;;22.92;11.63;;;;;;;13.30;63.17;95486.13;5051282;28;20127;-81
2023/05/07 00:19:50;;;;;;;22.38;12.90;;;;;;;13.19;63.26;95460.69;5051195;28;20415;-81
2023/05/07 00:22:15;;;;;;;18.05;11.80;;;;;;;13.05;63.53;95438.44;5050684;28;20028;-82
2023/05/07 00:24:41;;;;;;;22.30;12.00;;;;;;;13.23;63.40;95477.69;5044230;28;20029;-81
2023/05/07 00:27:06;;;;;;;22.20;12.10;;;;;;;13.20;63.61;95470.25;5040116;28;20049;-81
2023/05/07 00:29:32;;;;;;;22.40;11.35;;;;;;;12.96;63.89;95446.25;5052434;28;20087;-81
2023/05/07 00:31:57;;;;;;;22.20;12.68;;;;;;;13.07;63.90;95468.22;5050447;28;20052;-81
2023/05/07 00:34:23;;;;;;;18.42;11.43;;;;;;;12.96;64.23;95454.25;5050308;28;20048;-81
2023/05/07 00:36:48;;;;;;;23.27;12.68;;;;;;;12.91;64.20;95459.59;5037142;28;20496;-81
2023/05/07 00:39:13;;;;;;;22.35;11.60;;;;;;;13.01;64.32;95472.03;5045646;28;20408;-81
2023/05/07 00:41:39;;;;;;;24.40;11.15;;;;;;;12.69;64.43;95433.44;5036596;28;20025;-81
2023/05/07 00:44:04;;;;;;;20.63;12.13;;;;;;;12.56;64.47;95425.34;5030180;28;20055;-80
2023/05/07 00:46:31;;;;;;;20.80;12.27;;;;;;;12.37;64.91;95395.94;5030869;28;20091;-80
2023/05/07 00:48:57;;;;;;;21.75;12.10;;;;;;;12.47;64.96;95427.00;5032976;28;20104;-80
2023/05/07 00:51:25;;;;;;;21.67;11.75;;;;;;;12.59;65.20;95448.69;5050727;28;20480;-81
2023/05/07 00:53:50;;;;;;;20.50;11.32;;;;;;;12.79;65.23;95482.34;5045823;28;20026;-81
2023/05/07 00:56:16;;;;;;;24.23;11.55;;;;;;;12.71;65.43;95481.06;5030095;28;20412;-81
2023/05/07 00:58:42;;;;;;;22.95;11.73;;;;;;;12.71;65.46;95483.75;5037193;28;20586;-81
2023/05/07 01:01:07;;;;;;;21.63;12.50;;;;;;;12.46;65.26;95455.47;5052100;28;20115;-82
2023/05/07 01:03:33;;;;;;;18.35;11.05;;;;;;;12.67;65.24;95488.81;5050632;28;20043;-80
2023/05/07 01:05:59;;;;;;;20.20;12.25;;;;;;;12.43;65.39;95452.59;5040508;28;20037;-81
2023/05/07 01:08:27;;;;;;;22.83;11.95;;;;;;;12.61;65.35;95481.94;5042102;28;20485;-81
2023/05/07 01:10:54;;;;;;;17.45;11.57;;;;;;;12.48;65.30;95479.13;5050296;28;20140;-81
2023/05/07 01:13:20;;;;;;;25.75;11.32;;;;;;;12.57;65.39;95491.56;5050225;28;20036;-81
2023/05/07 01:15:46;;;;;;;19.05;11.23;;;;;;;12.46;65.21;95463.44;5034013;28;20500;-80
2023/05/07 01:18:11;;;;;;;21.92;11.27;;;;;;;12.54;65.22;95486.00;5031395;28;20037;-81
2023/05/07 01:20:37;;;;;;;18.95;11.10;;;;;;;12.37;65.62;95463.25;5030480;28;20060;-81
2023/05/07 01:23:03;;;;;;;23.30;10.65;;;;;;;12.52;65.70;95485.47;5050681;28;20032;-80
2023/05/07 01:25:30;;;;;;;17.95;10.75;;;;;;;11.91;65.56;95406.13;5051183;28;20104;-81
2023/05/07 01:27:55;;;;;;;19.02;10.43;;;;;;;12.27;65.42;95447.38;5047250;28;20028;-81
2023/05/07 01:30:22;;;;;;;22.10;9.65;;;;;;;11.94;65.53;95395.75;5033540;28;20166;-81
2023/05/07 01:32:50;;;;;;;17.75;9.68;;;;;;;12.08;65.34;95414.53;5050036;28;20041;-81
2023/05/07 01:35:22;;;;;;;17.95;9.77;;;;;;;12.42;65.14;95469.59;5044384;28;20443;-81
2023/05/07 01:37:49;;;;;;;14.32;7.97;;;;;;;12.44;65.20;95480.75;5031134;28;20029;-81
2023/05/07 01:40:14;;;;;;;19.48;8.65;;;;;;;12.41;65.32;95481.31;5040147;28;20444;-82
2023/05/07 01:42:42;;;;;;;15.60;7.95;;;;;;;12.41;65.13;95473.34;5038255;28;20041;-81
2023/05/07 01:45:08;;;;;;;10.93;7.60;;;;;;;12.25;65.13;95451.38;5031234;28;20036;-81
2023/05/07 01:47:35;;;;;;;15.90;7.50;;;;;;;12.26;64.99;95453.75;5044229;28;20052;-81
2023/05/07 01:50:01;;;;;;;17.83;7.75;;;;;;;12.33;65.27;95464.88;5034330;28;20037;-81
2023/05/07 01:52:27;;;;;;;12.85;8.05;;;;;;;12.37;65.12;95455.25;5048000;28;20112;-81
2023/05/07 01:54:53;;;;;;;11.13;7.15;;;;;;;12.20;64.90;95433.59;5049106;28;20037;-81
2023/05/07 01:57:18;;;;;;;13.32;6.60;;;;;;;12.16;65.05;95427.25;5028963;28;20130;-81
2023/05/07 01:59:44;;;;;;;13.68;6.82;;;;;;;12.34;64.94;95450.50;5029546;28;20040;-82
2023/05/07 02:02:09;;;;;;;18.15;6.10;;;;;;;12.17;65.06;95428.03;5034991;28;20029;-81
2023/05/07 02:04:36;;;;;;;14.57;6.60;;;;;;;12.25;64.80;95444.19;5049522;28;20036;-81
2023/05/07 02:07:01;;;;;;;10.68;6.60;;;;;;;12.07;65.09;95414.78;5032371;28;20120;-81
2023/05/07 02:09:27;;;;;;;12.35;7.03;;;;;;;12.38;64.74;95438.22;5049274;28;20475;-81
2023/05/07 02:11:52;;;;;;;15.27;6.60;;;;;;;12.09;64.79;95404.69;5039040;28;20516;-81
2023/05/07 02:14:19;;;;;;;10.40;6.28;;;;;;;12.37;64.69;95439.31;5042444;28;20037;-81
2023/05/07 02:16:45;;;;;;;12.48;7.30;;;;;;;12.07;64.70;95382.91;5048655;28;20044;-81
2023/05/07 02:19:10;;;;;;;13.00;7.93;;;;;;;12.24;64.87;95412.56;5050325;28;20028;-81
2023/05/07 02:21:36;;;;;;;14.18;7.68;;;;;;;12.41;64.67;95431.56;5033094;28;20037;-81
2023/05/07 02:24:01;;;;;;;11.43;7.43;;;;;;;12.45;64.55;95434.47;5047347;28;20123;-81
2023/05/07 02:26:27;;;;;;;11.93;7.32;;;;;;;12.35;64.39;95419.41;5048805;28;20063;-81
2023/05/07 02:28:53;;;;;;;12.15;7.70;;;;;;;12.48;64.62;95442.69;5047076;28;20470;-80
2023/05/07 02:31:19;;;;;;;13.05;8.05;;;;;;;12.51;64.51;95438.69;5030443;28;20044;-80
2023/05/07 02:33:45;;;;;;;11.18;7.60;;;;;;;12.53;64.60;95436.53;5028905;28;20037;-80
2023/05/07 02:36:11;;;;;;;17.48;8.05;;;;;;;12.52;64.71;95437.59;5033592;28;20407;-81
2023/05/07 02:38:37;;;;;;;10.85;8.00;;;;;;;12.07;65.30;95377.59;5050013;28;20028;-81
2023/05/07 02:41:02;;;;;;;14.27;8.68;;;;;;;12.50;65.44;95439.75;5049764;28;20021;-81
2023/05/07 02:43:28;;;;;;;14.45;8.98;;;;;;;12.52;65.52;95427.75;5048719;28;20037;-81
2023/05/07 02:46:05;;;;;;;17.15;10.00;;;;;;;12.24;65.33;95378.00;5048398;28;20036;-81
2023/05/07 02:48:30;;;;;;;19.42;10.73;;;;;;;12.58;65.56;95434.63;5047844;28;20420;-80
2023/05/07 02:50:56;;;;;;;13.57;9.98;;;;;;;12.59;65.75;95427.41;5034535;28;20033;-81
2023/05/07 02:53:22;;;;;;;17.58;10.90;;;;;;;12.22;65.89;95374.81;5028442;28;20049;-81
2023/05/07 02:55:47;;;;;;;15.68;9.98;;;;;;;12.44;66.25;95422.22;5046691;28;20044;-81
2023/05/07 02:58:12;;;;;;;18.25;10.82;;;;;;;12.34;66.06;95402.66;5049368;28;20056;-80
2023/05/07 03:00:38;;;;;;;15.57;11.40;;;;;;;12.59;66.02;95430.88;5029874;28;20500;-80
2023/05/07 03:03:03;;;;;;;16.38;11.32;;;;;;;12.53;66.06;95432.00;5048620;28;20033;-80
2023/05/07 03:05:29;;;;;;;16.98;11.20;;;;;;;12.45;66.68;95426.47;5049510;28;20033;-81
2023/05/07 03:07:54;;;;;;;17.15;10.68;;;;;;;12.31;66.96;95413.03;5049520;28;20090;-81
2023/05/07 03:10:20;;;;;;;20.23;11.38;;;;;;;12.16;66.65;95375.94;5048323;28;20035;-81
2023/05/07 03:12:45;;;;;;;16.70;11.25;;;;;;;12.67;66.76;95456.09;5048260;28;20357;-81
2023/05/07 03:15:14;;;;;;;18.30;10.93;;;;;;;12.67;66.98;95456.09;5048401;28;20102;-81
2023/05/07 03:17:39;;;;;;;19.60;11.60;;;;;;;12.52;67.07;95427.75;5041323;28;20041;-81
2023/05/07 03:20:05;;;;;;;17.45;12.63;;;;;;;12.74;67.13;95456.56;5042465;28;20078;-81
2023/05/07 03:22:31;;;;;;;21.45;12.80;;;;;;;12.70;67.40;95466.97;5052116;28;20053;-81
2023/05/07 03:24:57;;;;;;;16.35;12.13;;;;;;;12.53;66.84;95436.53;5040188;28;20545;-81
2023/05/07 03:27:22;;;;;;;17.35;11.98;;;;;;;12.44;66.96;95416.91;5045614;28;20053;-81
2023/05/07 03:29:48;;;;;;;24.55;12.63;;;;;;;12.63;67.14;95444.44;5036406;28;20047;-81
2023/05/07 03:32:14;;;;;;;22.50;11.85;;;;;;;12.71;67.17;95468.56;5049360;28;20091;-81
2023/05/07 03:34:39;;;;;;;20.45;11.65;;;;;;;12.57;67.08;95442.88;5053509;28;20559;-81
2023/05/07 03:37:05;;;;;;;20.60;12.65;;;;;;;12.70;67.21;95461.66;5033580;28;20042;-81
2023/05/07 03:39:31;;;;;;;25.70;12.23;;;;;;;12.45;66.93;95426.47;5050227;28;20091;-81
2023/05/07 03:41:57;;;;;;;19.73;12.57;;;;;;;12.54;67.17;95457.53;5051647;28;20029;-80
2023/05/07 03:44:23;;;;;;;19.25;12.25;;;;;;;12.54;67.45;95460.19;5051115;28;20119;-81
2023/05/07 03:46:48;;;;;;;19.23;11.90;;;;;;;12.47;67.60;95449.06;5034984;28;20029;-80
2023/05/07 03:49:14;;;;;;;23.35;13.32;;;;;;;12.41;67.42;95430.78;5049537;28;20380;-81
2023/05/07 03:51:39;;;;;;;16.42;12.40;;;;;;;12.71;67.39;95475.75;5031238;28;20506;-81
2023/05/07 03:54:05;;;;;;;17.70;11.95;;;;;;;12.62;67.55;95464.91;5033128;28;20480;-81
2023/05/07 03:56:31;;;;;;;17.15;12.82;;;;;;;12.72;67.63;95485.34;5039563;28;20522;-81
2023/05/07 03:58:56;;;;;;;19.45;12.02;;;;;;;12.58;67.39;95468.44;5042444;28;20029;-81
2023/05/07 04:01:22;;;;;;;22.38;12.65;;;;;;;12.64;67.88;95488.59;5032657;28;20021;-81
2023/05/07 04:03:47;;;;;;;25.55;12.85;;;;;;;12.18;67.41;95411.00;5044018;28;20403;-81
2023/05/07 04:06:13;;;;;;;30.83;13.50;;;;;;;12.74;66.95;95496.47;5039173;28;20037;-81
2023/05/07 04:08:38;;;;;;;22.70;12.93;;;;;;;11.85;66.80;95364.72;5031250;28;20060;-80
2023/05/07 04:11:03;;;;;;;28.67;14.30;;;;;;;12.50;67.22;95463.69;5032606;28;20384;-81
2023/05/07 04:13:30;;;;;;;30.05;14.48;;;;;;;11.72;66.81;95339.53;5046326;28;20029;-80
2023/05/07 04:15:56;;;;;;;25.05;13.75;;;;;;;12.76;67.11;95512.97;5052344;28;20468;-81
2023/05/07 04:18:21;;;;;;;25.33;12.68;;;;;;;12.73;66.90;95513.53;5051079;28;20128;-81
2023/05/07 04:20:50;;;;;;;23.98;13.30;;;;;;;12.49;67.25;95508.13;5049498;28;20028;-80
2023/05/07 04:23:15;;;;;;;17.98;11.52;;;;;;;12.31;67.87;95490.94;5031020;28;20025;-81
2023/05/07 04:25:41;;;;;;;25.17;13.32;;;;;;;12.52;67.82;95514.75;5030971;28;20068;-81
2023/05/07 04:28:06;;;;;;;24.80;13.65;;;;;;;12.46;67.46;95498.03;5036495;28;20039;-81
2023/05/07 04:30:32;;;;;;;22.73;13.60;;;;;;;12.47;66.95;95498.81;5043675;28;20124;-81
2023/05/07 04:32:57;;;;;;;19.27;12.90;;;;;;;12.65;66.78;95524.78;5030803;28;20041;-81
2023/05/07 04:35:23;;;;;;;26.40;13.60;;;;;;;12.88;66.48;95534.72;5041605;28;20044;-81
2023/05/07 04:37:48;;;;;;;29.92;13.30;;;;;;;12.54;66.50;95541.88;5050728;28;20041;-81
2023/05/07 04:40:14;;;;;;;22.85;12.60;;;;;;;12.47;66.89;95552.03;5037824;28;20044;-81
2023/05/07 04:42:40;;;;;;;25.52;12.95;;;;;;;12.45;66.31;95516.91;5045608;28;20507;-81
2023/05/07 04:45:06;;;;;;;19.30;11.93;;;;;;;12.14;67.14;95538.38;5050733;28;20124;-81
2023/05/07 04:47:31;;;;;;;25.70;12.35;;;;;;;11.28;68.42;95480.25;5050587;28;20144;-81
2023/05/07 04:49:58;;;;;;;19.80;12.55;;;;;;;11.24;68.52;95473.88;5050643;28;20037;-81
2023/05/07 04:52:23;;;;;;;27.45;13.65;;;;;;;11.37;68.36;95467.19;5031420;28;20030;-81
2023/05/07 04:54:49;;;;;;;22.08;13.13;;;;;;;11.47;68.56;95505.16;5030358;28;20038;-81
2023/05/07 04:57:14;;;;;;;32.17;12.55;;;;;;;11.94;68.21;95541.13;5034408;28;20095;-82
2023/05/07 04:59:39;;;;;;;24.00;13.00;;;;;;;11.86;67.57;95518.59;5050422;28;20419;-81
2023/05/07 05:02:05;;;;;;;19.70;12.30;;;;;;;12.22;67.08;95544.97;5049937;28;20473;-81
2023/05/07 05:04:30;;;;;;;22.40;12.40;;;;;;;11.97;67.12;95506.06;5050243;28;20039;-81
2023/05/07 05:06:56;;;;;;;21.23;12.07;;;;;;;12.25;67.13;95539.91;5050554;28;20040;-81
2023/05/07 05:09:22;;;;;;;25.25;13.68;;;;;;;12.18;66.50;95485.47;5051642;28;20503;-80
2023/05/07 05:11:47;;;;;;;24.35;13.75;;;;;;;12.31;66.77;95514.09;5041370;28;20499;-81
2023/05/07 05:14:12;;;;;;;29.55;13.85;;;;;;;11.98;66.42;95444.63;5029806;28;20445;-79
2023/05/07 05:16:38;;;;;;;21.10;13.27;;;;;;;12.40;66.30;95488.50;5030417;28;20500;-81
2023/05/07 05:19:03;;;;;;;24.75;12.95;;;;;;;12.53;66.07;95497.72;5043868;28;20499;-81
2023/05/07 05:21:29;;;;;;;26.65;13.68;;;;;;;12.45;66.77;95492.97;5036969;28;20033;-82
2023/05/07 05:23:54;;;;;;;19.77;13.73;;;;;;;12.90;66.38;95532.53;5044036;28;20037;-81
2023/05/07 05:26:21;;;;;;;22.95;13.85;;;;;;;12.85;66.79;95529.94;5036354;28;20484;-81
2023/05/07 05:28:47;;;;;;;24.35;13.63;;;;;;;12.87;66.28;95508.38;5029514;28;20037;-81
2023/05/07 05:31:13;;;;;;;20.60;14.35;;;;;;;13.06;65.94;95510.03;5033090;28;20037;-82
2023/05/07 05:33:39;;;;;;;17.48;12.30;;;;;;;12.94;65.88;95485.66;5049184;28;20055;-81
2023/05/07 05:36:06;;;;;;;25.45;13.77;;;;;;;13.30;65.52;95535.94;5049891;28;20492;-81
2023/05/07 05:38:31;;;;;;;20.38;13.13;;;;;;;13.20;65.65;95507.53;5051420;28;20039;-81
2023/05/07 05:40:56;;;;;;;19.33;13.30;;;;;;;13.05;66.30;95483.69;5047617;28;20037;-81
2023/05/07 05:43:22;;;;;;;25.65;15.30;;;;;;;13.39;65.87;95520.94;5034119;28;20028;-81
2023/05/07 05:45:47;;;;;;;27.75;14.43;;;;;;;13.50;66.05;95517.09;5049755;28;20033;-81
2023/05/07 05:48:13;;;;;;;19.75;13.60;;;;;;;13.44;66.31;95521.69;5043810;28;20040;-81
2023/05/07 05:50:38;;;;;;;26.33;15.02;;;;;;;13.38;65.97;95498.84;5038515;28;20032;-81
2023/05/07 05:53:04;;;;;;;21.33;13.63;;;;;;;13.55;65.76;95514.38;5049359;28;20036;-81
2023/05/07 05:55:32;;;;;;;21.85;14.13;;;;;;;13.72;66.47;95536.03;5038911;28;20045;-81
2023/05/07 05:57:57;;;;;;;26.48;14.18;;;;;;;13.51;66.43;95484.03;5040869;28;20550;-81
2023/05/07 06:00:23;;;;;;;22.73;12.93;;;;;;;13.66;66.41;95502.50;5048917;28;20072;-81
2023/05/07 06:02:48;;;;;;;18.65;13.98;;;;;;;13.60;65.85;95484.19;5050568;28;20035;-81
2023/05/07 06:05:14;;;;;;;19.83;13.55;;;;;;;14.02;66.09;95536.75;5050168;28;20028;-81
2023/05/07 06:07:40;;;;;;;25.08;14.18;;;;;;;13.77;65.72;95504.00;5048825;28;20041;-81
2023/05/07 06:10:06;;;;;;;19.38;13.52;;;;;;;13.91;65.50;95509.41;5031249;28;20026;-81
2023/05/07 06:12:32;;;;;;;22.42;13.50;;;;;;;14.12;65.46;95533.94;5047741;28;20040;-81
2023/05/07 06:14:57;;;;;;;22.20;14.10;;;;;;;13.85;65.04;95478.56;5048598;28;20037;-82
2023/05/07 06:17:23;;;;;;;23.40;15.13;;;;;;;14.14;64.77;95516.56;5048943;28;20487;-81
2023/05/07 06:19:48;;;;;;;24.60;12.80;;;;;;;13.76;64.62;95445.63;5049856;28;20044;-81
2023/05/07 06:22:13;;;;;;;26.55;14.13;;;;;;;14.14;64.52;95511.25;5044799;28;20078;-81
2023/05/07 06:24:39;;;;;;;22.77;14.65;;;;;;;14.01;65.15;95511.16;5028844;28;20049;-81
2023/05/07 06:27:04;;;;;;;21.92;14.07;;;;;;;13.89;65.07;95488.38;5028583;28;20124;-81
2023/05/07 06:29:32;;;;;;;18.15;12.85;;;;;;;14.25;64.57;95509.25;5037956;28;20039;-81
2023/05/07 06:32:06;;;;;;;24.90;12.75;;;;;;;14.21;63.92;95495.69;5049854;28;20032;-81
2023/05/07 06:34:32;;;;;;;21.05;13.02;;;;;;;14.25;63.74;95485.25;5050385;28;20028;-81
2023/05/07 06:36:57;;;;;;;19.30;12.10;;;;;;;14.38;64.17;95502.38;5049767;28;20040;-81
2023/05/07 06:39:23;;;;;;;21.40;13.55;;;;;;;14.39;63.47;95486.13;5048576;28;20048;-81
2023/05/07 06:41:48;;;;;;;25.27;13.23;;;;;;;14.50;63.73;95490.22;5048467;28;20035;-81
2023/05/07 06:44:14;;;;;;;23.58;12.82;;;;;;;14.38;63.60;95457.03;5033276;28;20025;-81
2023/05/07 06:46:41;;;;;;;19.40;13.10;;;;;;;14.70;63.79;95505.13;5044876;28;20082;-81
2023/05/07 06:49:07;;;;;;;21.83;14.10;;;;;;;14.46;63.72;95467.88;5031564;28;20334;-81
2023/05/07 06:51:32;;;;;;;22.52;13.63;;;;;;;14.36;63.47;95445.84;5045705;28;20071;-81
2023/05/07 06:53:58;;;;;;;21.92;14.10;;;;;;;14.35;63.25;95446.91;5049910;28;20288;-81
2023/05/07 06:56:24;;;;;;;23.08;14.70;;;;;;;14.59;63.33;95477.00;5047719;28;20028;-81
2023/05/07 06:58:49;;;;;;;27.40;15.70;;;;;;;14.59;64.69;95495.69;5032719;28;20029;-81
2023/05/07 07:01:15;;;;;;;25.42;16.20;;;;;;;14.43;64.32;95465.78;5048332;28;20032;-81
2023/05/07 07:03:40;;;;;;;24.27;15.00;;;;;;;14.53;64.45;95502.19;5049206;28;20033;-81
2023/05/07 07:06:06;;;;;;;25.88;15.88;;;;;;;14.60;64.28;95500.75;5047764;28;20037;-82
2023/05/07 07:08:31;;;;;;;25.27;15.35;;;;;;;14.64;64.17;95487.63;5039234;28;20029;-81
2023/05/07 07:10:57;;;;;;;24.42;15.25;;;;;;;14.68;63.95;95493.94;5021686;28;20090;-81
2023/05/07 07:13:22;;;;;;;24.90;15.45;;;;;;;14.86;63.41;95489.66;5038569;28;20041;-80
2023/05/07 07:15:48;;;;;;;24.42;14.88;;;;;;;14.75;63.56;95485.56;5029833;28;20047;-81
2023/05/07 07:18:13;;;;;;;22.42;15.15;;;;;;;14.97;63.15;95489.19;5028082;28;20044;-81
2023/05/07 07:20:39;;;;;;;25.85;14.48;;;;;;;14.91;63.23;95479.69;5042235;28;20029;-81
2023/05/07 07:23:05;;;;;;;23.80;15.43;;;;;;;14.95;63.07;95470.00;5031519;28;20088;-81
2023/05/07 07:25:30;;;;;;;21.48;15.00;;;;;;;14.85;62.47;95435.47;5049359;28;20529;-81
2023/05/07 07:27:56;;;;;;;32.10;15.25;;;;;;;15.21;62.80;95483.69;5049203;28;20029;-81
2023/05/07 07:30:21;;;;;;;32.80;14.75;;;;;;;14.86;62.25;95449.63;5029994;28;20030;-80
2023/05/07 07:32:47;;;;;;;21.33;13.63;;;;;;;15.04;61.38;95456.75;5029996;28;20137;-81
2023/05/07 07:35:12;;;;;;;27.25;14.13;;;;;;;15.00;61.42;95437.06;5048337;28;20031;-82
2023/05/07 07:37:37;;;;;;;23.88;13.70;;;;;;;15.19;61.46;95474.38;5042867;28;20423;-82
2023/05/07 07:40:03;;;;;;;22.85;14.13;;;;;;;15.24;60.38;95483.13;5027992;28;20030;-81
2023/05/07 07:42:29;;;;;;;23.48;13.88;;;;;;;15.41;60.76;95501.22;5037281;28;20041;-81
2023/05/07 07:44:55;;;;;;;23.88;15.07;;;;;;;15.30;60.76;95489.16;5041088;28;20085;-81
2023/05/07 07:47:20;;;;;;;24.40;14.95;;;;;;;15.10;61.07;95466.28;5037019;28;20037;-81
2023/05/07 07:49:45;;;;;;;28.58;15.32;;;;;;;15.03;60.61;95463.97;5049519;28;20406;-81
2023/05/07 07:52:11;;;;;;;24.30;13.50;;;;;;;14.97;60.78;95459.03;5047898;28;20036;-81
2023/05/07 07:54:36;;;;;;;26.45;14.10;;;;;;;15.33;60.15;95483.25;5047970;28;20033;-81
2023/05/07 07:57:02;;;;;;;20.65;13.63;;;;;;;15.51;59.56;95482.34;5044655;28;20037;-81
2023/05/07 07:59:27;;;;;;;23.17;14.07;;;;;;;15.47;59.82;95494.72;5033449;28;20110;-81
2023/05/07 08:01:55;;;;;;;22.42;14.13;;;;;;;15.32;60.10;95468.28;5043823;28;20120;-81
2023/05/07 08:04:21;;;;;;;21.25;12.82;;;;;;;15.39;59.55;95482.03;5034753;28;20112;-81
2023/05/07 08:06:46;;;;;;;19.92;13.07;;;;;;;15.66;59.37;95500.00;5031169;28;20128;-80
2023/05/07 08:09:12;;;;;;;21.20;13.05;;;;;;;15.54;58.65;95503.16;5050811;28;20090;-82
2023/05/07 08:11:38;;;;;;;19.20;12.55;;;;;;;15.44;59.26;95477.38;5035041;28;20033;-82
2023/05/07 08:14:04;;;;;;;19.98;12.75;;;;;;;15.64;58.41;95475.47;5051177;28;20478;-82
2023/05/07 08:16:30;;;;;;;23.35;12.57;;;;;;;15.75;58.07;95476.81;5052847;28;20040;-81
2023/05/07 08:18:56;;;;;;;22.35;14.10;;;;;;;15.51;58.00;95441.44;5051325;28;20033;-81
2023/05/07 08:21:22;;;;;;;22.40;13.07;;;;;;;15.72;58.36;95454.13;5050947;28;20028;-81
2023/05/07 08:23:47;;;;;;;19.08;11.98;;;;;;;15.99;57.40;95466.69;5052301;28;20033;-81
2023/05/07 08:26:13;;;;;;;21.92;11.50;;;;;;;16.18;57.31;95477.25;5052563;28;20057;-81
2023/05/07 08:28:39;;;;;;;21.60;12.00;;;;;;;16.14;57.80;95461.00;5052184;28;20041;-81
2023/05/07 08:31:05;;;;;;;18.15;12.38;;;;;;;16.03;56.89;95446.25;5039438;28;20479;-81
2023/05/07 08:33:30;;;;;;;18.80;12.45;;;;;;;16.31;56.87;95473.75;5045409;28;20115;-81
2023/05/07 08:35:56;;;;;;;20.65;12.25;;;;;;;16.23;56.69;95452.28;5037272;28;20037;-81
2023/05/07 08:38:21;;;;;;;21.40;10.27;;;;;;;16.18;55.75;95453.94;5047840;28;20116;-81
2023/05/07 08:40:47;;;;;;;17.38;9.98;;;;;;;16.36;54.83;95460.25;5050841;28;20045;-81
2023/05/07 08:43:14;;;;;;;17.05;9.60;;;;;;;16.40;53.95;95444.41;5052420;28;20063;-81
2023/05/07 08:45:40;;;;;;;17.63;10.35;;;;;;;16.57;54.21;95455.22;5050611;28;20033;-81
2023/05/07 08:48:14;;;;;;;13.02;9.85;;;;;;;16.30;53.82;95409.81;5050627;28;20052;-81
2023/05/07 08:50:39;;;;;;;13.73;9.07;;;;;;;16.67;53.28;95454.22;5050174;28;20040;-82
2023/05/07 08:53:05;;;;;;;14.88;9.27;;;;;;;16.68;52.92;95464.63;5050213;28;20048;-81
2023/05/07 08:55:33;;;;;;;11.85;8.18;;;;;;;16.91;52.73;95458.16;5050604;28;20087;-81
2023/05/07 08:57:58;;;;;;;13.82;8.82;;;;;;;16.96;53.79;95441.94;5051641;28;20051;-81
2023/05/07 09:00:24;;;;;;;15.45;7.97;;;;;;;16.94;52.13;95428.06;5050322;28;20123;-81
2023/05/07 09:02:50;;;;;;;15.98;8.88;;;;;;;17.06;51.98;95450.81;5050280;28;20029;-81
2023/05/07 09:05:15;;;;;;;15.85;8.02;;;;;;;17.06;51.13;95445.47;5051806;28;20547;-81
2023/05/07 09:07:41;;;;;;;13.55;9.10;;;;;;;16.77;50.96;95384.34;5050297;28;20127;-81
2023/05/07 09:10:07;;;;;;;14.52;7.55;;;;;;;17.20;50.08;95436.25;5050074;28;20124;-81
2023/05/07 09:12:34;;;;;;;17.17;7.80;;;;;;;17.43;50.51;95449.56;5051363;28;20045;-82
2023/05/07 09:15:00;;;;;;;9.77;6.28;;;;;;;17.36;50.29;95418.66;5034989;28;20091;-81
2023/05/07 09:17:26;;;;;;;13.65;7.35;;;;;;;17.53;50.34;95428.66;5031455;28;20471;-81
2023/05/07 09:19:53;;;;;;;15.00;7.95;;;;;;;17.39;49.16;95389.66;5048368;28;20033;-81
2023/05/07 09:22:18;;;;;;;10.68;6.63;;;;;;;17.57;48.69;95401.97;5032764;28;20464;-81
2023/05/07 09:24:48;;;;;;;16.35;7.28;;;;;;;17.17;49.50;95351.09;5047927;28;20147;-81
2023/05/07 09:27:14;;;;;;;11.05;6.43;;;;;;;17.75;49.82;95414.38;5031098;28;20076;-83
2023/05/07 09:29:40;;;;;;;10.88;6.78;;;;;;;17.80;50.40;95402.69;5036461;28;20075;-81
2023/05/07 09:32:06;;;;;;;10.38;6.25;;;;;;;17.83;49.43;95384.09;5049317;28;20037;-80
2023/05/07 09:34:32;;;;;;;8.52;5.57;;;;;;;18.19;49.48;95424.06;5042613;28;20500;-79
2023/05/07 09:37:00;;;;;;;11.90;6.03;;;;;;;18.06;48.43;95384.75;5031001;28;20037;-80
2023/05/07 09:39:26;;;;;;;9.25;6.05;;;;;;;18.20;46.44;95419.47;5041487;28;20411;-80
2023/05/07 09:41:54;;;;;;;12.85;5.22;;;;;;;18.18;46.55;95398.31;5049112;28;20557;-82
2023/05/07 09:44:20;;;;;;;10.25;5.45;;;;;;;18.29;44.50;95396.91;5037151;28;20128;-80
2023/05/07 09:46:49;;;;;;;9.10;4.97;;;;;;;18.99;42.72;95409.16;5045892;28;20472;-79
2023/05/07 09:49:22;;;;;;;8.95;4.72;;;;;;;19.83;41.12;95386.81;5049101;28;20041;-81
2023/05/07 09:51:50;;;;;;;13.18;5.47;;;;;;;20.82;39.68;95378.88;5048197;28;20033;-81
2023/05/07 09:54:17;;;;;;;14.77;5.57;;;;;;;21.77;37.61;95396.59;5032634;28;20564;-81
2023/05/07 09:56:47;;;;;;;10.35;5.55;;;;;;;22.83;35.93;95409.75;5049524;28;20072;-82
2023/05/07 09:59:15;;;;;;;10.30;5.13;;;;;;;22.67;34.52;95369.91;5043285;28;20032;-82
2023/05/07 10:01:42;;;;;;;10.45;4.28;;;;;;;23.11;33.49;95364.53;5037059;28;20048;-81
2023/05/07 10:04:08;;;;;;;8.65;4.57;;;;;;;23.66;33.72;95371.69;5040591;28;20041;-82
2023/05/07 10:06:35;;;;;;;13.20;4.68;;;;;;;24.43;32.22;95398.94;5040537;28;20122;-81
2023/05/07 10:09:01;;;;;;;5.95;3.90;;;;;;;25.24;31.76;95401.69;5051729;28;20055;-82
2023/05/07 10:11:28;;;;;;;6.75;3.80;;;;;;;25.57;29.47;95371.97;5037222;28;20040;-81
2023/05/07 10:13:54;;;;;;;6.32;3.65;;;;;;;25.43;29.07;95370.97;5044607;28;20037;-82
2023/05/07 10:16:20;;;;;;;12.52;4.75;;;;;;;25.40;29.22;95347.28;5051943;28;20032;-82
2023/05/07 10:18:48;;;;;;;6.43;3.88;;;;;;;26.28;27.77;95373.06;5049579;28;20098;-81
2023/05/07 10:21:18;;;;;;;8.23;3.85;;;;;;;26.95;27.35;95361.41;5030799;28;20388;-81
2023/05/07 10:23:48;;;;;;;7.15;3.60;;;;;;;26.60;26.92;95387.03;5031407;28;20036;-81
2023/05/07 10:26:15;;;;;;;3.92;2.83;;;;;;;25.43;27.02;95332.94;5044770;28;20043;-82
2023/05/07 10:28:43;;;;;;;5.70;3.40;;;;;;;26.85;26.44;95381.91;5029280;28;20026;-82
2023/05/07 10:31:31;;;;;;;7.78;3.95;;;;;;;27.24;26.50;95374.91;5035636;28;20044;-81
2023/05/07 10:33:59;;;;;;;12.93;5.38;;;;;;;24.61;26.92;95120.81;5039828;28;20033;-82
2023/05/07 10:36:25;;;;;;;6.28;3.33;;;;;;;26.22;27.08;95357.41;5042803;28;20094;-82
2023/05/07 10:38:51;;;;;;;6.25;3.63;;;;;;;26.64;26.39;95368.03;5050020;28;20036;-81
2023/05/07 10:41:18;;;;;;;5.70;3.35;;;;;;;26.36;26.99;95363.03;5049187;28;20107;-81
2023/05/07 10:43:45;;;;;;;5.93;3.25;;;;;;;26.48;26.83;95362.78;5048889;28;20086;-81
2023/05/07 10:46:18;;;;;;;9.45;4.10;;;;;;;26.51;26.50;95343.81;5049189;28;20120;-82
2023/05/07 10:49:02;;;;;;;7.30;3.50;;;;;;;26.48;26.18;95368.22;5012482;28;20034;-82
2023/05/07 10:51:30;;;;;;;7.78;3.58;;;;;;;26.62;25.89;95359.47;5043803;28;20029;-81
2023/05/07 10:54:19;;;;;;;6.47;3.70;;;;;;;26.84;26.08;95359.34;5037487;28;20029;-81
2023/05/07 10:56:44;;;;;;;9.55;3.45;;;;;;;26.65;25.96;95307.81;5031441;28;20492;-81
2023/05/07 10:59:23;;;;;;;7.68;3.67;;;;;;;27.07;25.74;95353.78;5041711;28;20032;-81
2023/05/07 11:01:49;;;;;;;6.68;3.58;;;;;;;26.94;25.45;95330.69;5050054;28;20040;-81
2023/05/07 11:04:17;;;;;;;5.85;3.63;;;;;;;27.56;25.35;95333.56;5049815;28;20492;-82
2023/05/07 11:07:08;;;;;;;6.50;3.08;;;;;;;27.83;26.14;95304.19;5049141;28;20041;-82
2023/05/07 11:09:52;;;;;;;6.38;3.50;;;;;;;28.50;25.64;95350.88;5015894;28;20037;-82
2023/05/07 11:12:37;;;;;;;3.72;3.22;;;;;;;28.44;24.01;95319.69;5049333;28;20032;-82
2023/05/07 11:15:07;;;;;;;4.55;3.53;;;;;;;28.70;23.71;95318.59;5049592;28;20039;-82
2023/05/07 11:17:36;;;;;;;7.47;3.85;;;;;;;28.46;24.19;95322.78;5048796;28;20387;-82